Skip Navigation LinksHome page > Weather > Current weather Skip Navigation Links

Current Weather

Cincinnati/Northern Kentucky International, Covington, Ky.

For information only: do not use for flight planning or navigation.
Latest weather
Observation time Thursday, November 21, 2019 2:52 PM EST
Local time Thursday, November 21, 2019 3:01 PM EST
Flight conditions Visual Meteorological Conditions
Winds
Wind direction South-Southwest (210°)
Wind speed 16 mph
Wind gusting to 28 mph
Visibility 5 mi.
Present weather light rain
Sky condition
Ceiling 4,200 ft. overcast
Cloud layer overcast 4,200 ft.
Temperature 53°F
Dewpoint 44°F
Altimeter 29.96 in.Hg
Precipitation
Rain began 1:59 PM
Precipitation last hour 0.02 in.
Derived measurements
Relative humidity 71%
Density altitude 600 ft.
Sea-level pressure 29.96 in.Hg
Remarks
Automated weather observing station with precipitation discriminator.
METAR KCVG 211952Z 21014G24KT 5SM -RA OVC042 12/07 A2996 RMK AO2 RAB1859 SLP146 P0002 T01170067

Settings

Location code

InnerDrive.Weather 4.0.6770.0 Release CLR 4.0.30319.42000
Copyright ©2018 Inner Drive Technology. All rights reserved. Portions Copyright ©1986-2018 David Braverman.

Find weather

Site navigation


Skip Navigation Links

Place info

Page info

PayPal - The safer, easier way to pay online!

Return home.

Copyright ©2019 Inner Drive Technology. Purveyors of fine, hand-crafted computer software. Page printed 2019-11-21T20:01:17 UTC.